createdAt,value
2024-04-16T00:01:35.781Z,15.89
2024-04-16T00:04:02.629Z,15.89
2024-04-16T00:06:29.407Z,15.89
2024-04-16T00:08:56.188Z,15.88
2024-04-16T00:11:23.100Z,15.86
2024-04-16T00:13:49.863Z,15.86
2024-04-16T00:16:16.721Z,15.85
2024-04-16T00:18:43.493Z,15.87
2024-04-16T00:21:10.212Z,15.86
2024-04-16T00:23:36.967Z,15.86
2024-04-16T00:26:03.866Z,15.85
2024-04-16T00:28:30.931Z,15.86
2024-04-16T00:30:57.821Z,15.85
2024-04-16T00:33:24.533Z,15.86
2024-04-16T00:35:51.367Z,15.80
2024-04-16T00:38:18.124Z,15.87
2024-04-16T00:40:44.951Z,15.86
2024-04-16T00:43:19.087Z,15.86
2024-04-16T00:45:56.229Z,15.86
2024-04-16T00:48:25.815Z,15.86
2024-04-16T00:50:55.239Z,15.85
2024-04-16T00:53:23.676Z,15.84
2024-04-16T00:55:51.833Z,15.82
2024-04-16T00:58:20.530Z,15.81
2024-04-16T01:00:47.564Z,15.81
2024-04-16T01:03:14.645Z,15.80
2024-04-16T01:05:42.824Z,15.78
2024-04-16T01:08:10.329Z,15.79
2024-04-16T01:10:41.167Z,15.78
2024-04-16T01:13:11.147Z,15.78
2024-04-16T01:15:38.340Z,15.77
2024-04-16T01:18:07.609Z,15.76
2024-04-16T01:20:37.688Z,15.76
2024-04-16T01:23:04.598Z,15.75
2024-04-16T01:25:37.077Z,15.75
2024-04-16T01:28:04.212Z,15.75
2024-04-16T01:30:31.184Z,15.73
2024-04-16T01:32:57.916Z,15.73
2024-04-16T01:35:24.677Z,15.72
2024-04-16T01:37:51.423Z,15.71
2024-04-16T01:40:18.327Z,15.71
2024-04-16T01:42:45.031Z,15.70
2024-04-16T01:45:11.727Z,15.69
2024-04-16T01:47:38.630Z,15.68
2024-04-16T01:50:05.946Z,15.68
2024-04-16T01:52:32.754Z,15.68
2024-04-16T01:54:59.562Z,15.68
2024-04-16T01:57:26.301Z,15.67
2024-04-16T01:59:53.010Z,15.69
2024-04-16T02:02:19.677Z,15.70
2024-04-16T02:04:46.502Z,15.70
2024-04-16T02:07:13.311Z,15.66
2024-04-16T02:09:40.102Z,15.67
2024-04-16T02:12:07.110Z,15.66
2024-04-16T02:14:33.843Z,15.66
2024-04-16T02:17:00.649Z,15.63
2024-04-16T02:19:27.370Z,15.64
2024-04-16T02:21:54.087Z,15.65
2024-04-16T02:24:20.830Z,15.60
2024-04-16T02:26:47.537Z,15.64
2024-04-16T02:29:14.260Z,15.64
2024-04-16T02:31:40.982Z,15.63
2024-04-16T02:34:07.763Z,15.64
2024-04-16T02:36:36.832Z,15.64
2024-04-16T02:39:03.642Z,15.64
2024-04-16T02:41:30.556Z,15.65
2024-04-16T02:43:57.667Z,15.65
2024-04-16T02:46:24.371Z,15.65
2024-04-16T02:48:51.117Z,15.63
2024-04-16T02:51:18.577Z,15.62
2024-04-16T02:53:45.300Z,15.62
2024-04-16T02:56:12.015Z,15.61
2024-04-16T02:58:38.717Z,15.61
2024-04-16T03:01:06.600Z,15.61
2024-04-16T03:03:35.569Z,15.59
2024-04-16T03:06:02.382Z,15.58
2024-04-16T03:08:29.597Z,15.57
2024-04-16T03:11:03.591Z,15.56
2024-04-16T03:13:30.479Z,15.55
2024-04-16T03:15:57.237Z,15.55
2024-04-16T03:18:23.923Z,15.54
2024-04-16T03:21:00.131Z,15.52
2024-04-16T03:23:27.066Z,15.52
2024-04-16T03:25:53.787Z,15.51
2024-04-16T03:28:20.574Z,15.52
2024-04-16T03:30:47.362Z,15.51
2024-04-16T03:33:14.093Z,15.48
2024-04-16T03:35:41.111Z,15.49
2024-04-16T03:38:07.779Z,15.47
2024-04-16T03:40:34.575Z,15.46
2024-04-16T03:43:01.408Z,15.44
2024-04-16T03:45:28.167Z,15.45
2024-04-16T03:47:54.982Z,15.42
2024-04-16T03:50:21.740Z,15.42
2024-04-16T03:52:48.449Z,15.42
2024-04-16T03:55:15.327Z,15.41
2024-04-16T03:57:42.034Z,15.40
2024-04-16T04:00:27.833Z,15.39
2024-04-16T04:02:54.998Z,15.40
2024-04-16T04:05:21.782Z,15.38
2024-04-16T04:07:49.239Z,15.33
2024-04-16T04:10:18.316Z,15.39
2024-04-16T04:12:45.090Z,15.38
2024-04-16T04:15:11.783Z,15.38
2024-04-16T04:17:38.622Z,15.38
2024-04-16T04:20:05.806Z,15.38
2024-04-16T04:22:32.715Z,15.38
2024-04-16T04:24:59.503Z,15.37
2024-04-16T04:27:26.196Z,15.36
2024-04-16T04:29:52.967Z,15.35
2024-04-16T04:32:19.792Z,15.35
2024-04-16T04:34:46.857Z,15.36
2024-04-16T04:37:13.716Z,15.36
2024-04-16T04:39:40.518Z,15.35
2024-04-16T04:42:07.239Z,15.35
2024-04-16T04:44:34.850Z,15.36
2024-04-16T04:47:01.577Z,15.36
2024-04-16T04:49:28.370Z,15.35
2024-04-16T04:51:55.121Z,15.36
2024-04-16T04:54:21.847Z,15.39
2024-04-16T04:56:50.296Z,15.39
2024-04-16T04:59:17.337Z,15.41
2024-04-16T05:01:44.134Z,15.42
2024-04-16T05:04:11.000Z,15.42
2024-04-16T05:06:41.193Z,15.42
2024-04-16T05:09:07.917Z,15.40
2024-04-16T05:11:35.127Z,15.40
2024-04-16T05:14:01.943Z,15.39
2024-04-16T05:16:28.683Z,15.37
2024-04-16T05:18:55.399Z,15.36
2024-04-16T05:21:22.124Z,15.36
2024-04-16T05:23:50.487Z,15.34
2024-04-16T05:26:18.037Z,15.33
2024-04-16T05:28:44.847Z,15.31
2024-04-16T05:31:11.578Z,15.28
2024-04-16T05:33:38.279Z,15.27
2024-04-16T05:36:06.587Z,15.26
2024-04-16T05:38:34.448Z,15.23
2024-04-16T05:41:01.326Z,15.22
2024-04-16T05:43:28.132Z,15.20
2024-04-16T05:45:54.840Z,15.19
2024-04-16T05:48:21.718Z,15.12
2024-04-16T05:50:48.602Z,15.13
2024-04-16T05:53:16.176Z,15.12
2024-04-16T05:55:42.988Z,15.10
2024-04-16T05:58:11.732Z,15.08
2024-04-16T06:00:38.963Z,15.07
2024-04-16T06:03:05.975Z,15.05
2024-04-16T06:05:32.717Z,15.04
2024-04-16T06:07:59.649Z,15.02
2024-04-16T06:10:26.408Z,15.00
2024-04-16T06:12:53.103Z,14.99
2024-04-16T06:15:19.843Z,14.96
2024-04-16T06:17:46.618Z,14.96
2024-04-16T06:20:13.458Z,14.93
2024-04-16T06:22:40.978Z,14.93
2024-04-16T06:25:08.918Z,14.92
2024-04-16T06:27:35.722Z,14.90
2024-04-16T06:30:02.499Z,14.90
2024-04-16T06:32:29.326Z,14.90
2024-04-16T06:34:56.077Z,14.89
2024-04-16T06:37:22.941Z,14.89
2024-04-16T06:39:49.713Z,14.88
2024-04-16T06:42:17.022Z,14.87
2024-04-16T06:44:43.935Z,14.88
2024-04-16T06:47:10.762Z,14.87
2024-04-16T06:49:37.830Z,14.86
2024-04-16T06:52:04.939Z,14.86
2024-04-16T06:54:31.636Z,14.85
2024-04-16T06:56:58.311Z,14.84
2024-04-16T06:59:25.016Z,14.85
2024-04-16T07:01:51.783Z,14.83
2024-04-16T07:04:18.524Z,14.84
2024-04-16T07:06:45.261Z,14.83
2024-04-16T07:09:11.972Z,14.81
2024-04-16T07:11:39.535Z,14.83
2024-04-16T07:14:06.284Z,14.84
2024-04-16T07:16:33.085Z,14.84
2024-04-16T07:18:59.823Z,14.85
2024-04-16T07:21:26.536Z,14.86
2024-04-16T07:23:54.754Z,14.86
2024-04-16T07:26:21.601Z,14.86
2024-04-16T07:28:48.481Z,14.87
2024-04-16T07:31:18.320Z,14.87
2024-04-16T07:33:46.366Z,14.89
2024-04-16T07:36:13.264Z,14.91
2024-04-16T07:38:40.042Z,14.91
2024-04-16T07:41:07.066Z,14.93
2024-04-16T07:43:36.644Z,14.92
2024-04-16T07:46:03.460Z,14.94
2024-04-16T07:48:30.234Z,14.94
2024-04-16T07:50:57.023Z,14.93
2024-04-16T07:53:23.754Z,14.93
2024-04-16T07:55:50.537Z,14.93
2024-04-16T07:58:17.312Z,14.92
2024-04-16T08:00:44.162Z,14.93
2024-04-16T08:03:11.040Z,14.92
2024-04-16T08:05:38.243Z,14.92
2024-04-16T08:08:09.758Z,14.92
2024-04-16T08:10:39.466Z,14.95
2024-04-16T08:13:06.448Z,14.97
2024-04-16T08:15:33.257Z,14.97
2024-04-16T08:18:00.171Z,15.00
2024-04-16T08:20:27.020Z,14.99
2024-04-16T08:22:54.640Z,14.97
2024-04-16T08:25:21.415Z,14.98
2024-04-16T08:27:48.175Z,14.95
2024-04-16T08:30:14.925Z,14.94
2024-04-16T08:32:41.674Z,14.93
2024-04-16T08:35:12.808Z,14.91
2024-04-16T08:37:39.727Z,14.90
2024-04-16T08:40:09.717Z,14.90
2024-04-16T08:42:37.267Z,14.88
2024-04-16T08:45:05.434Z,14.87
2024-04-16T08:47:34.490Z,14.87
2024-04-16T08:50:03.097Z,14.85
2024-04-16T08:52:31.638Z,14.82
2024-04-16T08:54:59.350Z,14.83
2024-04-16T08:57:29.539Z,14.82
2024-04-16T08:59:56.235Z,14.81
2024-04-16T09:02:25.077Z,14.80
2024-04-16T09:04:53.003Z,14.79
2024-04-16T09:07:20.930Z,14.78
2024-04-16T09:09:47.752Z,14.76
2024-04-16T09:12:14.603Z,14.75
2024-04-16T09:14:41.311Z,14.74
2024-04-16T09:17:14.986Z,14.73
2024-04-16T09:19:45.031Z,14.71
2024-04-16T09:22:11.959Z,14.69
2024-04-16T09:24:38.739Z,14.67
2024-04-16T09:27:11.444Z,14.69
2024-04-16T09:29:38.152Z,14.68
2024-04-16T09:32:05.558Z,14.67
2024-04-16T09:34:33.255Z,14.69
2024-04-16T09:37:01.010Z,14.69
2024-04-16T09:39:29.249Z,14.70
2024-04-16T09:41:56.594Z,14.70
2024-04-16T09:44:26.033Z,14.71
2024-04-16T09:46:55.560Z,14.70
2024-04-16T09:49:28.123Z,14.71
2024-04-16T09:52:03.214Z,14.71
2024-04-16T09:54:31.207Z,14.71
2024-04-16T09:56:58.863Z,14.71
2024-04-16T09:59:26.782Z,14.70
2024-04-16T10:01:55.238Z,14.71
2024-04-16T10:04:23.324Z,14.71
2024-04-16T10:06:50.847Z,14.72
2024-04-16T10:09:18.842Z,14.71
2024-04-16T10:11:49.048Z,14.70
2024-04-16T10:14:16.647Z,14.71
2024-04-16T10:16:43.468Z,14.71
2024-04-16T10:19:10.253Z,14.72
2024-04-16T10:21:40.876Z,14.75
2024-04-16T10:24:09.669Z,14.75
2024-04-16T10:26:38.360Z,14.77
2024-04-16T10:29:19.641Z,14.78
2024-04-16T10:31:53.902Z,14.77
2024-04-16T10:34:27.619Z,14.75
2024-04-16T10:36:57.541Z,14.76
2024-04-16T10:39:33.573Z,14.75
2024-04-16T10:42:05.524Z,14.75
2024-04-16T10:44:34.598Z,14.74
2024-04-16T10:47:02.384Z,14.76
2024-04-16T10:49:29.776Z,14.74
2024-04-16T10:51:56.781Z,14.73
2024-04-16T10:54:23.609Z,14.73
2024-04-16T10:56:52.275Z,14.74
2024-04-16T10:59:20.084Z,14.74
2024-04-16T11:01:47.991Z,14.73
2024-04-16T11:04:16.377Z,14.73
2024-04-16T11:06:43.287Z,14.73
2024-04-16T11:09:11.979Z,14.71
2024-04-16T11:11:39.775Z,14.71
2024-04-16T11:14:08.548Z,14.72
2024-04-16T11:16:35.569Z,14.70
2024-04-16T11:19:03.922Z,14.69
2024-04-16T11:21:33.276Z,14.71
2024-04-16T11:24:00.401Z,14.72
2024-04-16T11:26:28.230Z,14.70
2024-04-16T11:28:54.825Z,14.70
2024-04-16T11:31:21.679Z,14.69
2024-04-16T11:33:49.321Z,14.68
2024-04-16T11:36:18.327Z,14.68
2024-04-16T11:38:45.379Z,14.68
2024-04-16T11:41:13.991Z,14.69
2024-04-16T11:43:43.445Z,14.70
2024-04-16T11:46:16.322Z,14.70
2024-04-16T11:48:44.225Z,14.70
2024-04-16T11:51:12.390Z,14.70
2024-04-16T11:53:39.690Z,14.69
2024-04-16T11:56:12.848Z,14.69
2024-04-16T11:58:41.251Z,14.68
2024-04-16T12:01:08.193Z,14.69
2024-04-16T12:03:35.118Z,14.68
2024-04-16T12:06:01.987Z,14.65
2024-04-16T12:08:28.763Z,14.63
2024-04-16T12:10:55.600Z,14.57
2024-04-16T12:13:22.374Z,14.52
2024-04-16T12:15:49.244Z,14.55
2024-04-16T12:18:16.002Z,14.57
2024-04-16T12:20:42.784Z,14.58
2024-04-16T12:23:09.478Z,14.59
2024-04-16T12:25:36.242Z,14.60
2024-04-16T12:28:02.976Z,14.61
2024-04-16T12:30:32.515Z,14.60
2024-04-16T12:33:06.081Z,14.63
2024-04-16T12:35:41.227Z,14.62
2024-04-16T12:38:07.935Z,14.63
2024-04-16T12:40:34.678Z,14.65
2024-04-16T12:43:01.379Z,14.65
2024-04-16T12:45:28.111Z,14.68
2024-04-16T12:47:54.981Z,14.68
2024-04-16T12:50:21.726Z,14.69
2024-04-16T12:52:48.447Z,14.69
2024-04-16T12:55:15.193Z,14.70
2024-04-16T12:57:41.936Z,14.71
2024-04-16T13:00:09.740Z,14.71
2024-04-16T13:02:36.461Z,14.72
2024-04-16T13:05:03.260Z,14.70
2024-04-16T13:07:30.092Z,14.69
2024-04-16T13:09:57.110Z,14.68
2024-04-16T13:12:23.856Z,14.68
2024-04-16T13:14:50.566Z,14.70
2024-04-16T13:17:17.274Z,14.72
2024-04-16T13:19:53.386Z,14.72
2024-04-16T13:22:21.250Z,14.72
2024-04-16T13:24:48.069Z,14.70
2024-04-16T13:27:14.801Z,14.68
2024-04-16T13:29:41.661Z,14.66
2024-04-16T13:32:08.490Z,14.68
2024-04-16T13:34:35.516Z,14.71
2024-04-16T13:37:02.372Z,14.70
2024-04-16T13:39:29.521Z,14.70
2024-04-16T13:41:56.722Z,14.70
2024-04-16T13:44:23.421Z,14.70
2024-04-16T13:46:50.206Z,14.73
2024-04-16T13:49:16.993Z,14.75
2024-04-16T13:51:43.777Z,14.77
2024-04-16T13:54:10.497Z,14.77
2024-04-16T13:56:37.170Z,14.79
2024-04-16T13:59:04.107Z,14.78
2024-04-16T14:01:30.987Z,14.79
2024-04-16T14:03:57.749Z,14.80
2024-04-16T14:06:24.543Z,14.80
2024-04-16T14:08:51.339Z,14.83
2024-04-16T14:11:18.095Z,14.84
2024-04-16T14:13:44.952Z,14.85
2024-04-16T14:16:11.758Z,14.87
2024-04-16T14:18:38.457Z,14.86
2024-04-16T14:21:05.339Z,14.86
2024-04-16T14:23:33.768Z,14.82
2024-04-16T14:26:00.473Z,14.80
2024-04-16T14:28:32.108Z,14.76
2024-04-16T14:30:58.975Z,14.63
2024-04-16T14:33:26.351Z,14.61
2024-04-16T14:35:53.211Z,14.58
2024-04-16T14:38:19.966Z,14.56
2024-04-16T14:40:46.878Z,14.54
2024-04-16T14:43:13.678Z,14.54
2024-04-16T14:45:40.363Z,14.53
2024-04-16T14:48:07.536Z,14.53
2024-04-16T14:50:43.924Z,14.52
2024-04-16T14:53:14.242Z,14.51
2024-04-16T14:55:44.595Z,14.50
2024-04-16T14:58:11.440Z,14.49
2024-04-16T15:00:41.947Z,14.47
2024-04-16T15:03:08.888Z,14.47
2024-04-16T15:05:35.696Z,14.46
2024-04-16T15:08:02.391Z,14.45
2024-04-16T15:10:30.439Z,14.44
2024-04-16T15:12:57.443Z,14.43
2024-04-16T15:15:24.157Z,14.42
2024-04-16T15:17:51.011Z,14.41
2024-04-16T15:20:17.829Z,14.39
2024-04-16T15:22:44.599Z,14.41
2024-04-16T15:25:11.349Z,14.41
2024-04-16T15:27:38.119Z,14.39
2024-04-16T15:30:05.401Z,14.39
2024-04-16T15:32:32.154Z,14.38
2024-04-16T15:34:58.888Z,14.39
2024-04-16T15:37:25.683Z,14.38
2024-04-16T15:39:52.867Z,14.37
2024-04-16T15:42:19.574Z,14.37
2024-04-16T15:44:46.400Z,14.36
2024-04-16T15:47:15.659Z,14.36
2024-04-16T15:49:43.884Z,14.35
2024-04-16T15:52:10.715Z,14.34
2024-04-16T15:54:37.632Z,14.34
2024-04-16T15:57:04.434Z,14.33
2024-04-16T15:59:31.123Z,14.33
2024-04-16T16:01:57.897Z,14.32
2024-04-16T16:04:24.649Z,14.32
2024-04-16T16:06:51.381Z,14.32
2024-04-16T16:09:18.760Z,14.32
2024-04-16T16:11:45.532Z,14.29
2024-04-16T16:14:12.402Z,14.31
2024-04-16T16:16:39.156Z,14.31
2024-04-16T16:19:05.860Z,14.29
2024-04-16T16:21:32.578Z,14.30
2024-04-16T16:23:59.355Z,14.29
2024-04-16T16:26:26.076Z,14.28
2024-04-16T16:28:53.003Z,14.29
2024-04-16T16:31:20.010Z,14.26
2024-04-16T16:33:47.452Z,14.28
2024-04-16T16:36:14.404Z,14.28
2024-04-16T16:38:41.109Z,14.26
2024-04-16T16:41:07.807Z,14.25
2024-04-16T16:43:34.516Z,14.24
2024-04-16T16:46:04.627Z,14.24
2024-04-16T16:48:31.516Z,14.24
2024-04-16T16:50:58.273Z,14.24
2024-04-16T16:53:25.021Z,14.24
2024-04-16T16:55:53.526Z,14.24
2024-04-16T16:58:21.110Z,14.23
2024-04-16T17:00:49.761Z,14.23
2024-04-16T17:03:18.554Z,14.21
2024-04-16T17:05:45.644Z,14.23
2024-04-16T17:08:12.359Z,14.22
2024-04-16T17:10:40.047Z,14.22
2024-04-16T17:13:06.782Z,14.21
2024-04-16T17:15:33.714Z,14.20
2024-04-16T17:18:00.717Z,14.20
2024-04-16T17:20:28.647Z,14.19
2024-04-16T17:22:55.939Z,14.19
2024-04-16T17:25:22.685Z,14.18
2024-04-16T17:27:49.379Z,14.18
2024-04-16T17:30:16.181Z,14.17
2024-04-16T17:32:43.155Z,14.16
2024-04-16T17:35:09.882Z,14.15
2024-04-16T17:37:36.664Z,14.16
2024-04-16T17:40:03.589Z,14.12
2024-04-16T17:42:31.405Z,14.13
2024-04-16T17:44:57.964Z,14.12
2024-04-16T17:47:24.718Z,14.12
2024-04-16T17:49:51.814Z,14.11
2024-04-16T17:52:18.730Z,14.10
2024-04-16T17:54:53.737Z,14.09
2024-04-16T17:57:20.820Z,14.09
2024-04-16T17:59:48.311Z,14.09
2024-04-16T18:02:15.096Z,14.08
2024-04-16T18:04:41.895Z,14.08
2024-04-16T18:07:08.670Z,14.07
2024-04-16T18:09:35.398Z,14.08
2024-04-16T18:12:02.133Z,14.06
2024-04-16T18:14:28.849Z,14.06
2024-04-16T18:16:55.666Z,14.05
2024-04-16T18:19:22.434Z,14.06
2024-04-16T18:21:49.168Z,14.05
2024-04-16T18:24:16.992Z,14.04
2024-04-16T18:26:43.788Z,14.05
2024-04-16T18:29:10.506Z,14.04
2024-04-16T18:31:37.850Z,14.04
2024-04-16T18:34:04.577Z,14.02
2024-04-16T18:36:31.253Z,13.98
2024-04-16T18:38:58.091Z,14.04
2024-04-16T18:41:25.267Z,14.04
2024-04-16T18:43:51.980Z,14.03
2024-04-16T18:46:18.677Z,14.02
2024-04-16T18:48:45.494Z,14.03
2024-04-16T18:51:12.334Z,14.03
2024-04-16T18:53:39.024Z,13.99
2024-04-16T18:56:11.509Z,13.99
2024-04-16T18:58:38.293Z,13.99
2024-04-16T19:01:05.270Z,13.98
2024-04-16T19:03:32.007Z,13.97
2024-04-16T19:05:58.784Z,13.95
2024-04-16T19:08:25.525Z,13.97
2024-04-16T19:10:52.260Z,13.96
2024-04-16T19:13:18.983Z,13.96
2024-04-16T19:15:56.017Z,13.95
2024-04-16T19:18:23.158Z,13.95
2024-04-16T19:20:49.901Z,13.95
2024-04-16T19:23:16.623Z,13.92
2024-04-16T19:25:43.454Z,13.94
2024-04-16T19:28:10.170Z,13.92
2024-04-16T19:30:36.911Z,13.92
2024-04-16T19:33:03.725Z,13.92
2024-04-16T19:35:30.481Z,13.89
2024-04-16T19:37:57.197Z,13.90
2024-04-16T19:40:23.977Z,13.89
2024-04-16T19:42:50.766Z,13.88
2024-04-16T19:45:17.496Z,13.88
2024-04-16T19:47:44.392Z,13.87
2024-04-16T19:50:11.211Z,13.86
2024-04-16T19:52:38.061Z,13.85
2024-04-16T19:55:06.485Z,13.86
2024-04-16T19:57:33.596Z,13.86
2024-04-16T20:00:01.962Z,13.84
2024-04-16T20:02:28.691Z,13.83
2024-04-16T20:04:55.446Z,13.84
2024-04-16T20:07:22.152Z,13.84
2024-04-16T20:09:51.149Z,13.83
2024-04-16T20:12:17.889Z,13.82
2024-04-16T20:14:46.120Z,13.82
2024-04-16T20:17:14.320Z,13.82
2024-04-16T20:19:41.090Z,13.82
2024-04-16T20:22:07.851Z,13.79
2024-04-16T20:24:34.688Z,13.81
2024-04-16T20:27:02.272Z,13.79
2024-04-16T20:29:29.803Z,13.78
2024-04-16T20:31:56.637Z,13.79
2024-04-16T20:34:25.729Z,13.78
2024-04-16T20:36:52.676Z,13.78
2024-04-16T20:39:21.496Z,13.77
2024-04-16T20:41:48.256Z,13.77
2024-04-16T20:44:15.071Z,13.77
2024-04-16T20:46:41.809Z,13.76
2024-04-16T20:49:08.569Z,13.76
2024-04-16T20:51:35.316Z,13.75
2024-04-16T20:54:02.095Z,13.74
2024-04-16T20:56:30.413Z,13.74
2024-04-16T20:58:57.284Z,13.75
2024-04-16T21:01:24.093Z,13.74
2024-04-16T21:03:50.861Z,13.76
2024-04-16T21:06:18.127Z,13.76
2024-04-16T21:08:44.841Z,13.77
2024-04-16T21:11:11.720Z,13.77
2024-04-16T21:13:38.541Z,13.76
2024-04-16T21:16:05.841Z,13.75
2024-04-16T21:18:32.574Z,13.71
2024-04-16T21:20:59.277Z,13.75
2024-04-16T21:23:25.960Z,13.74
2024-04-16T21:25:52.858Z,13.72
2024-04-16T21:28:19.718Z,13.72
2024-04-16T21:30:46.515Z,13.72
2024-04-16T21:33:13.313Z,13.70
2024-04-16T21:35:41.294Z,13.70
2024-04-16T21:38:08.112Z,13.70
2024-04-16T21:40:34.931Z,13.70
2024-04-16T21:43:02.670Z,13.69
2024-04-16T21:45:29.658Z,13.69
2024-04-16T21:47:56.524Z,13.69
2024-04-16T21:50:24.298Z,13.67
2024-04-16T21:52:51.128Z,13.67
2024-04-16T21:55:17.897Z,13.67
2024-04-16T21:57:44.659Z,13.67
2024-04-16T22:00:12.817Z,13.66
2024-04-16T22:02:39.755Z,13.66
2024-04-16T22:05:07.008Z,13.65
2024-04-16T22:07:33.797Z,13.65
2024-04-16T22:10:00.744Z,13.65
2024-04-16T22:12:27.417Z,13.65
2024-04-16T22:14:54.168Z,13.65
2024-04-16T22:17:20.878Z,13.64
2024-04-16T22:19:48.144Z,13.64
2024-04-16T22:22:14.941Z,13.64
2024-04-16T22:24:41.750Z,13.63
2024-04-16T22:27:08.510Z,13.64
2024-04-16T22:29:35.198Z,13.63
2024-04-16T22:32:01.899Z,13.63
2024-04-16T22:34:28.632Z,13.62
2024-04-16T22:36:55.318Z,13.62
2024-04-16T22:39:22.112Z,13.60
2024-04-16T22:41:48.909Z,13.61
2024-04-16T22:44:15.614Z,13.59
2024-04-16T22:46:42.290Z,13.58
2024-04-16T22:49:09.078Z,13.57
2024-04-16T22:51:35.786Z,13.57
2024-04-16T22:54:02.465Z,13.57
2024-04-16T22:56:29.265Z,13.55
2024-04-16T22:58:56.001Z,13.56
2024-04-16T23:01:22.724Z,13.54
2024-04-16T23:03:49.573Z,13.53
2024-04-16T23:06:16.373Z,13.53
2024-04-16T23:08:43.095Z,13.51
2024-04-16T23:11:09.979Z,13.51
2024-04-16T23:13:37.293Z,13.49
2024-04-16T23:16:04.117Z,13.49
2024-04-16T23:18:31.162Z,13.49
2024-04-16T23:20:57.932Z,13.49
2024-04-16T23:23:24.664Z,13.49
2024-04-16T23:25:51.512Z,13.49
2024-04-16T23:28:18.336Z,13.49
2024-04-16T23:30:45.035Z,13.50
2024-04-16T23:33:11.826Z,13.50
2024-04-16T23:35:38.649Z,13.49
2024-04-16T23:38:05.400Z,13.49
2024-04-16T23:40:32.292Z,13.48
2024-04-16T23:42:59.073Z,13.49
2024-04-16T23:45:25.743Z,13.48
2024-04-16T23:47:52.598Z,13.48
2024-04-16T23:50:19.308Z,13.47
2024-04-16T23:52:46.859Z,13.47
2024-04-16T23:55:13.658Z,13.46
2024-04-16T23:57:40.351Z,13.46
